createdAt,value
2022-10-31T00:01:03.528Z,12.52
2022-10-31T00:04:08.548Z,12.49
2022-10-31T00:07:11.215Z,12.29
2022-10-31T00:10:13.964Z,12.49
2022-10-31T00:13:17.229Z,12.53
2022-10-31T00:16:21.987Z,12.54
2022-10-31T00:19:26.262Z,12.52
2022-10-31T00:22:29.238Z,12.52
2022-10-31T00:25:35.830Z,12.52
2022-10-31T00:28:38.515Z,12.49
2022-10-31T00:31:41.618Z,12.48
2022-10-31T00:34:45.682Z,12.50
2022-10-31T00:37:48.359Z,12.51
2022-10-31T00:40:51.230Z,12.51
2022-10-31T00:43:54.101Z,12.50
2022-10-31T00:46:57.183Z,12.51
2022-10-31T00:50:01.226Z,12.52
2022-10-31T00:53:04.240Z,12.53
2022-10-31T00:56:08.204Z,12.53
2022-10-31T00:59:10.859Z,12.51
2022-10-31T01:02:13.996Z,12.51
2022-10-31T01:05:18.662Z,12.50
2022-10-31T01:08:21.314Z,12.50
2022-10-31T01:11:25.537Z,12.50
2022-10-31T01:14:28.295Z,12.48
2022-10-31T01:17:31.287Z,12.47
2022-10-31T01:20:35.328Z,12.45
2022-10-31T01:23:39.010Z,12.46
2022-10-31T01:26:41.665Z,12.48
2022-10-31T01:29:44.598Z,12.44
2022-10-31T01:32:47.325Z,12.41
2022-10-31T01:35:51.582Z,12.40
2022-10-31T01:38:57.271Z,12.40
2022-10-31T01:42:00.225Z,12.38
2022-10-31T01:45:06.156Z,12.36
2022-10-31T01:48:15.734Z,12.20
2022-10-31T01:51:23.864Z,12.32
2022-10-31T01:54:33.164Z,12.28
2022-10-31T01:57:39.769Z,12.26
2022-10-31T02:00:45.982Z,12.24
2022-10-31T02:03:49.857Z,12.23
2022-10-31T02:07:00.205Z,12.21
2022-10-31T02:10:05.033Z,12.23
2022-10-31T02:13:10.256Z,12.23
2022-10-31T02:16:12.933Z,12.22
2022-10-31T02:19:21.878Z,12.22
2022-10-31T02:22:30.730Z,12.19
2022-10-31T02:25:51.657Z,12.20
2022-10-31T02:29:26.910Z,12.19
2022-10-31T02:32:40.353Z,12.13
2022-10-31T02:35:52.410Z,12.07
2022-10-31T02:39:04.391Z,12.03
2022-10-31T02:42:11.670Z,11.99
2022-10-31T02:45:22.595Z,11.98
2022-10-31T02:48:30.374Z,11.96
2022-10-31T02:51:33.209Z,11.93
2022-10-31T02:54:36.040Z,11.91
2022-10-31T02:57:41.123Z,11.89
2022-10-31T03:00:52.861Z,11.87
2022-10-31T03:04:25.836Z,11.88
2022-10-31T03:07:42.154Z,11.84
2022-10-31T03:10:49.715Z,11.79
2022-10-31T03:13:59.898Z,11.77
2022-10-31T03:17:08.442Z,11.77
2022-10-31T03:20:12.804Z,11.77
2022-10-31T03:23:19.028Z,11.75
2022-10-31T03:26:23.901Z,11.72
2022-10-31T03:29:30.907Z,11.66
2022-10-31T03:32:38.978Z,11.61
2022-10-31T03:35:46.767Z,11.62
2022-10-31T03:38:50.087Z,11.63
2022-10-31T03:41:56.875Z,11.61
2022-10-31T03:45:04.571Z,11.62
2022-10-31T03:48:07.690Z,11.63
2022-10-31T03:51:17.496Z,11.61
2022-10-31T03:54:27.559Z,11.60
2022-10-31T03:57:37.658Z,11.58
2022-10-31T04:00:44.041Z,11.56
2022-10-31T04:03:47.519Z,11.53
2022-10-31T04:06:53.267Z,11.48
2022-10-31T04:09:57.912Z,11.48
2022-10-31T04:13:05.824Z,11.47
2022-10-31T04:16:12.737Z,11.46
2022-10-31T04:19:19.223Z,11.46
2022-10-31T04:22:23.333Z,11.45
2022-10-31T04:25:26.041Z,11.39
2022-10-31T04:28:29.465Z,11.39
2022-10-31T04:31:32.178Z,11.42
2022-10-31T04:34:35.340Z,11.43
2022-10-31T04:37:39.856Z,11.42
2022-10-31T04:40:42.639Z,11.42
2022-10-31T04:43:45.738Z,11.45
2022-10-31T04:46:48.670Z,11.39
2022-10-31T04:49:51.790Z,11.39
2022-10-31T04:52:55.871Z,11.42
2022-10-31T04:56:00.579Z,11.42
2022-10-31T04:59:04.075Z,11.42
2022-10-31T05:02:07.435Z,11.44
2022-10-31T05:05:10.719Z,11.41
2022-10-31T05:08:15.479Z,11.32
2022-10-31T05:11:18.221Z,11.36
2022-10-31T05:14:21.310Z,11.40
2022-10-31T05:17:24.226Z,11.27
2022-10-31T05:20:28.962Z,11.26
2022-10-31T05:23:33.083Z,11.30
2022-10-31T05:26:35.857Z,11.25
2022-10-31T05:29:38.752Z,11.26
2022-10-31T05:32:42.174Z,11.15
2022-10-31T05:35:44.893Z,11.09
2022-10-31T05:38:49.349Z,11.06
2022-10-31T05:41:52.073Z,11.00
2022-10-31T05:44:54.766Z,10.99
2022-10-31T05:47:59.880Z,11.13
2022-10-31T05:51:04.033Z,11.18
2022-10-31T05:54:10.750Z,11.14
2022-10-31T05:57:16.608Z,11.05
2022-10-31T06:00:20.544Z,11.03
2022-10-31T06:03:23.257Z,10.97
2022-10-31T06:06:25.958Z,11.00
2022-10-31T06:09:30.447Z,10.95
2022-10-31T06:12:33.441Z,10.97
2022-10-31T06:15:36.160Z,11.03
2022-10-31T06:18:39.237Z,10.97
2022-10-31T06:21:41.916Z,10.95
2022-10-31T06:24:45.969Z,11.05
2022-10-31T06:27:48.671Z,11.05
2022-10-31T06:30:51.866Z,11.02
2022-10-31T06:33:54.639Z,11.04
2022-10-31T06:36:57.710Z,10.98
2022-10-31T06:40:01.767Z,10.97
2022-10-31T06:43:05.018Z,10.99
2022-10-31T06:46:07.998Z,10.91
2022-10-31T06:49:11.088Z,10.81
2022-10-31T06:52:13.850Z,10.93
2022-10-31T06:55:17.950Z,10.96
2022-10-31T06:58:20.700Z,10.93
2022-10-31T07:01:23.554Z,11.02
2022-10-31T07:04:26.459Z,11.11
2022-10-31T07:07:29.143Z,11.07
2022-10-31T07:10:40.058Z,11.06
2022-10-31T07:13:43.629Z,11.27
2022-10-31T07:16:49.834Z,11.37
2022-10-31T07:19:52.495Z,11.36
2022-10-31T07:22:55.390Z,11.31
2022-10-31T07:26:00.621Z,11.32
2022-10-31T07:29:03.482Z,11.31
2022-10-31T07:32:06.410Z,11.29
2022-10-31T07:35:10.333Z,11.31
2022-10-31T07:38:15.136Z,11.39
2022-10-31T07:41:19.234Z,11.46
2022-10-31T07:44:21.912Z,11.53
2022-10-31T07:47:24.711Z,11.48
2022-10-31T07:50:29.483Z,11.56
2022-10-31T07:53:32.178Z,11.55
2022-10-31T07:56:36.345Z,11.55
2022-10-31T07:59:39.095Z,11.60
2022-10-31T08:02:41.780Z,11.57
2022-10-31T08:05:46.959Z,11.60
2022-10-31T08:08:49.797Z,11.62
2022-10-31T08:11:55.304Z,11.65
2022-10-31T08:14:58.056Z,11.66
2022-10-31T08:18:02.910Z,11.72
2022-10-31T08:21:06.349Z,11.72
2022-10-31T08:24:09.169Z,11.80
2022-10-31T08:27:13.586Z,11.74
2022-10-31T08:30:16.357Z,11.74
2022-10-31T08:33:20.518Z,11.80
2022-10-31T08:36:23.814Z,11.82
2022-10-31T08:39:27.080Z,11.80
2022-10-31T08:42:31.175Z,11.79
2022-10-31T08:45:35.510Z,11.82
2022-10-31T08:48:38.255Z,11.92
2022-10-31T08:51:41.429Z,12.02
2022-10-31T08:54:44.157Z,12.05
2022-10-31T08:57:48.606Z,12.06
2022-10-31T09:00:53.597Z,12.03
2022-10-31T09:03:56.365Z,12.05
2022-10-31T09:07:21.277Z,11.91
2022-10-31T09:10:22.589Z,12.20
2022-10-31T09:13:28.390Z,12.03
2022-10-31T09:16:31.558Z,12.07
2022-10-31T09:19:34.786Z,12.21
2022-10-31T09:22:37.517Z,12.17
2022-10-31T09:25:41.079Z,12.16
2022-10-31T09:28:47.325Z,12.21
2022-10-31T09:31:51.356Z,12.18
2022-10-31T09:34:54.351Z,12.14
2022-10-31T09:37:58.267Z,12.16
2022-10-31T09:41:09.854Z,12.21
2022-10-31T09:44:25.167Z,12.29
2022-10-31T09:47:38.396Z,12.35
2022-10-31T09:50:45.207Z,12.37
2022-10-31T09:53:52.299Z,12.32
2022-10-31T09:56:55.706Z,12.40
2022-10-31T10:00:00.597Z,12.56
2022-10-31T10:03:13.355Z,12.65
2022-10-31T10:06:18.447Z,12.68
2022-10-31T10:09:24.352Z,12.79
2022-10-31T10:12:42.981Z,12.87
2022-10-31T10:16:03.270Z,12.98
2022-10-31T10:19:24.164Z,13.07
2022-10-31T10:22:33.973Z,13.22
2022-10-31T10:25:41.817Z,13.30
2022-10-31T10:28:49.339Z,13.42
2022-10-31T10:31:55.937Z,13.50
2022-10-31T10:35:05.541Z,13.64
2022-10-31T10:38:17.449Z,13.64
2022-10-31T10:41:23.011Z,13.77
2022-10-31T10:44:43.238Z,13.88
2022-10-31T10:47:58.805Z,13.87
2022-10-31T10:51:03.777Z,14.04
2022-10-31T10:54:22.594Z,14.13
2022-10-31T10:57:40.646Z,14.20
2022-10-31T11:00:47.259Z,14.26
2022-10-31T11:03:52.242Z,14.36
2022-10-31T11:07:03.340Z,14.52
2022-10-31T11:10:13.972Z,14.58
2022-10-31T11:13:25.120Z,14.67
2022-10-31T11:16:40.455Z,14.75
2022-10-31T11:19:45.486Z,14.84
2022-10-31T11:22:50.590Z,14.85
2022-10-31T11:25:57.019Z,14.95
2022-10-31T11:29:02.358Z,14.98
2022-10-31T11:32:05.541Z,15.15
2022-10-31T11:35:17.386Z,15.21
2022-10-31T11:38:23.801Z,15.17
2022-10-31T11:41:31.024Z,15.27
2022-10-31T11:44:34.634Z,15.30
2022-10-31T11:47:37.850Z,15.37
2022-10-31T11:50:44.615Z,15.37
2022-10-31T11:53:56.818Z,15.35
2022-10-31T11:57:04.307Z,15.48
2022-10-31T12:00:23.424Z,15.53
2022-10-31T12:03:39.450Z,15.47
2022-10-31T12:06:46.847Z,15.47
2022-10-31T12:09:50.181Z,15.52
2022-10-31T12:13:03.634Z,15.60
2022-10-31T12:16:14.884Z,15.69
2022-10-31T12:19:29.026Z,15.59
2022-10-31T12:22:44.226Z,15.63
2022-10-31T12:25:53.560Z,15.70
2022-10-31T12:29:16.603Z,15.70
2022-10-31T12:32:31.761Z,15.59
2022-10-31T12:35:43.711Z,15.71
2022-10-31T12:39:02.233Z,15.71
2022-10-31T12:42:15.182Z,15.73
2022-10-31T12:45:34.977Z,15.84
2022-10-31T12:49:18.270Z,15.77
2022-10-31T12:52:42.634Z,15.87
2022-10-31T12:55:56.720Z,15.94
2022-10-31T12:59:06.464Z,15.96
2022-10-31T13:02:18.982Z,15.95
2022-10-31T13:05:28.615Z,15.94
2022-10-31T13:08:38.876Z,16.03
2022-10-31T13:11:53.479Z,16.12
2022-10-31T13:15:00.994Z,16.17
2022-10-31T13:18:09.120Z,16.17
2022-10-31T13:21:19.002Z,16.22
2022-10-31T13:24:25.818Z,16.16
2022-10-31T13:27:33.026Z,16.04
2022-10-31T13:30:40.260Z,16.05
2022-10-31T13:33:48.005Z,15.91
2022-10-31T13:36:58.401Z,15.97
2022-10-31T13:40:16.021Z,15.96
2022-10-31T13:43:29.391Z,15.88
2022-10-31T13:46:40.645Z,15.78
2022-10-31T13:49:43.797Z,15.95
2022-10-31T13:52:46.666Z,16.01
2022-10-31T13:55:51.094Z,15.94
2022-10-31T13:59:06.477Z,15.88
2022-10-31T14:02:17.806Z,15.81
2022-10-31T14:05:25.845Z,15.78
2022-10-31T14:08:36.571Z,15.69
2022-10-31T14:11:39.383Z,15.64
2022-10-31T14:14:48.301Z,15.50
2022-10-31T14:17:54.614Z,15.44
2022-10-31T14:20:57.553Z,15.46
2022-10-31T14:24:00.412Z,15.45
2022-10-31T14:27:08.794Z,15.21
2022-10-31T14:30:23.481Z,15.22
2022-10-31T14:33:28.904Z,15.28
2022-10-31T14:36:43.797Z,15.29
2022-10-31T14:40:00.208Z,15.31
2022-10-31T14:43:29.737Z,15.37
2022-10-31T14:46:45.300Z,15.40
2022-10-31T14:50:14.977Z,15.47
2022-10-31T14:53:22.876Z,15.55
2022-10-31T14:56:28.976Z,15.54
2022-10-31T14:59:35.213Z,15.45
2022-10-31T15:02:46.517Z,15.45
2022-10-31T15:05:53.549Z,15.45
2022-10-31T15:08:56.712Z,15.38
2022-10-31T15:12:00.763Z,15.21
2022-10-31T15:15:16.076Z,15.24
2022-10-31T15:18:24.856Z,15.20
2022-10-31T15:21:29.916Z,15.13
2022-10-31T15:24:36.041Z,15.03
2022-10-31T15:27:42.566Z,14.93
2022-10-31T15:30:53.620Z,14.82
2022-10-31T15:34:03.198Z,14.78
2022-10-31T15:37:06.560Z,14.76
2022-10-31T15:40:16.970Z,14.70
2022-10-31T15:43:19.746Z,14.63
2022-10-31T15:46:23.166Z,14.53
2022-10-31T15:49:39.142Z,14.36
2022-10-31T15:52:48.076Z,14.25
2022-10-31T15:55:54.248Z,14.15
2022-10-31T15:58:59.475Z,14.08
2022-10-31T16:02:05.279Z,14.13
2022-10-31T16:05:20.716Z,14.02
2022-10-31T16:08:33.689Z,13.93
2022-10-31T16:11:39.383Z,13.81
2022-10-31T16:14:43.296Z,13.83
2022-10-31T16:17:49.196Z,13.72
2022-10-31T16:20:56.609Z,13.77
2022-10-31T16:24:05.913Z,13.76
2022-10-31T16:27:20.230Z,13.74
2022-10-31T16:30:36.853Z,13.75
2022-10-31T16:33:41.512Z,13.78
2022-10-31T16:36:46.133Z,13.77
2022-10-31T16:39:49.025Z,13.79
2022-10-31T16:42:52.666Z,13.80
2022-10-31T16:45:55.497Z,13.79
2022-10-31T16:48:59.302Z,13.74
2022-10-31T16:52:03.397Z,13.66
2022-10-31T16:55:07.404Z,13.68
2022-10-31T16:58:16.216Z,13.67
2022-10-31T17:01:19.056Z,13.69
2022-10-31T17:04:22.034Z,13.70
2022-10-31T17:07:26.150Z,13.74
2022-10-31T17:10:29.073Z,13.74
2022-10-31T17:13:33.859Z,13.75
2022-10-31T17:16:36.933Z,13.76
2022-10-31T17:19:39.653Z,13.85
2022-10-31T17:22:43.907Z,13.82
2022-10-31T17:25:46.673Z,13.78
2022-10-31T17:28:49.746Z,13.74
2022-10-31T17:31:52.518Z,13.73
2022-10-31T17:34:55.275Z,13.75
2022-10-31T17:37:59.750Z,13.77
2022-10-31T17:41:10.017Z,13.66
2022-10-31T17:44:14.422Z,13.62
2022-10-31T17:47:17.213Z,13.58
2022-10-31T17:50:22.244Z,13.56
2022-10-31T17:53:26.310Z,13.50
2022-10-31T17:56:29.171Z,13.46
2022-10-31T17:59:31.942Z,13.47
2022-10-31T18:02:35.238Z,13.46
2022-10-31T18:05:38.219Z,13.49
2022-10-31T18:08:42.484Z,13.51
2022-10-31T18:11:45.256Z,13.53
2022-10-31T18:14:48.727Z,13.56
2022-10-31T18:17:51.689Z,13.70
2022-10-31T18:20:58.356Z,13.68
2022-10-31T18:24:03.874Z,13.65
2022-10-31T18:27:07.286Z,13.62
2022-10-31T18:30:10.898Z,13.63
2022-10-31T18:33:13.979Z,13.57
2022-10-31T18:36:16.821Z,13.65
2022-10-31T18:39:21.054Z,13.64
2022-10-31T18:42:23.775Z,13.61
2022-10-31T18:45:46.357Z,13.60
2022-10-31T18:48:50.062Z,13.73
2022-10-31T18:51:53.178Z,13.79
2022-10-31T18:54:57.379Z,13.72
2022-10-31T18:58:02.294Z,13.60
2022-10-31T19:01:08.647Z,13.57
2022-10-31T19:04:11.947Z,13.57
2022-10-31T19:07:15.338Z,13.56
2022-10-31T19:10:19.624Z,13.57
2022-10-31T19:13:22.953Z,13.45
2022-10-31T19:16:25.771Z,13.59
2022-10-31T19:19:29.618Z,13.68
2022-10-31T19:22:33.006Z,13.62
2022-10-31T19:25:38.324Z,13.60
2022-10-31T19:28:42.580Z,13.67
2022-10-31T19:31:45.317Z,13.65
2022-10-31T19:34:48.091Z,13.56
2022-10-31T19:37:51.340Z,13.49
2022-10-31T19:40:59.194Z,13.36
2022-10-31T19:44:02.376Z,13.38
2022-10-31T19:47:05.334Z,13.30
2022-10-31T19:50:09.664Z,13.28
2022-10-31T19:53:12.455Z,13.24
2022-10-31T19:56:18.233Z,13.22
2022-10-31T19:59:20.935Z,13.21
2022-10-31T20:02:23.699Z,13.16
2022-10-31T20:05:26.843Z,13.08
2022-10-31T20:08:29.913Z,13.04
2022-10-31T20:11:34.019Z,12.95
2022-10-31T20:14:36.739Z,12.87
2022-10-31T20:17:39.543Z,12.82
2022-10-31T20:20:42.830Z,12.78
2022-10-31T20:23:46.409Z,12.77
2022-10-31T20:26:50.465Z,12.75
2022-10-31T20:29:53.568Z,12.74
2022-10-31T20:32:56.292Z,12.70
2022-10-31T20:35:59.052Z,12.68
2022-10-31T20:39:02.149Z,12.68
2022-10-31T20:42:07.244Z,12.68
2022-10-31T20:45:10.654Z,12.75
2022-10-31T20:48:13.693Z,12.87
2022-10-31T20:51:18.653Z,12.94
2022-10-31T20:54:21.809Z,13.05
2022-10-31T20:57:25.866Z,13.15
2022-10-31T21:00:29.005Z,13.26
2022-10-31T21:03:31.776Z,13.33
2022-10-31T21:06:35.324Z,13.44
2022-10-31T21:09:38.009Z,13.52
2022-10-31T21:12:43.033Z,13.54
2022-10-31T21:15:45.866Z,13.62
2022-10-31T21:18:50.717Z,13.69
2022-10-31T21:21:53.521Z,13.70
2022-10-31T21:24:56.252Z,13.74
2022-10-31T21:28:00.758Z,13.73
2022-10-31T21:31:07.645Z,13.76
2022-10-31T21:34:11.275Z,13.79
2022-10-31T21:37:14.277Z,13.80
2022-10-31T21:40:17.009Z,13.79
2022-10-31T21:43:21.183Z,13.81
2022-10-31T21:46:25.806Z,13.82
2022-10-31T21:49:29.518Z,13.82
2022-10-31T21:52:32.912Z,13.82
2022-10-31T21:55:34.770Z,13.83
2022-10-31T21:58:38.944Z,13.82
2022-10-31T22:01:42.236Z,13.80
2022-10-31T22:04:45.601Z,13.81
2022-10-31T22:07:48.311Z,13.83
2022-10-31T22:10:51.115Z,13.84
2022-10-31T22:13:55.710Z,13.85
2022-10-31T22:16:58.532Z,13.87
2022-10-31T22:20:01.205Z,13.87
2022-10-31T22:23:04.058Z,13.87
2022-10-31T22:26:08.966Z,13.87
2022-10-31T22:29:15.146Z,13.85
2022-10-31T22:32:17.826Z,13.85
2022-10-31T22:35:20.502Z,13.85
2022-10-31T22:38:23.304Z,13.85
2022-10-31T22:41:27.556Z,13.83
2022-10-31T22:44:31.665Z,13.81
2022-10-31T22:47:34.755Z,13.76
2022-10-31T22:50:37.566Z,13.76
2022-10-31T22:53:41.525Z,13.77
2022-10-31T22:56:44.334Z,13.77
2022-10-31T22:59:48.621Z,13.79
2022-10-31T23:02:51.555Z,13.76
2022-10-31T23:05:58.152Z,13.78
2022-10-31T23:09:02.565Z,13.80
2022-10-31T23:12:19.424Z,13.81
2022-10-31T23:15:23.553Z,13.78
2022-10-31T23:18:48.516Z,13.77
2022-10-31T23:21:57.500Z,13.73
2022-10-31T23:25:00.361Z,13.74
2022-10-31T23:28:02.963Z,13.73
2022-10-31T23:31:07.115Z,13.70
2022-10-31T23:34:10.218Z,13.70
2022-10-31T23:37:13.758Z,13.70
2022-10-31T23:40:16.707Z,13.70
2022-10-31T23:43:19.759Z,13.68
2022-10-31T23:46:24.102Z,13.67
2022-10-31T23:49:27.144Z,13.69
2022-10-31T23:52:30.225Z,13.73
2022-10-31T23:55:33.044Z,13.73
2022-10-31T23:58:35.752Z,13.73
